Dunnellon, Florida
Current Conditions -  °F | °C
As of 5:35 PM on Saturday 25 Oct 2014 (Local Time) from KCGC Reporting Station
Clear Clear  
Wind Chill: 73°   Ceiling: Unl
Heat Index: 73°   Visibility: 10mi
Dew Point: 54°   Wind: 6mph
Humidity: 50%   Direction: 300°WNW
Pressure: 29.96"   Gusts: NA
Location:  29.05°N, 82.45°W
Report Text: KCGC 252135Z AUTO 30005KT 10SM CLR 23/12 A2996 RMK AO2 PWINO
Loading
Personal Weather Stations






























Interactive Weather Map New forecast layout! Learn more

10-Day Weather Forecast

Advertisements
Track Severe Weather on mobile